sensor_id;sensor_type;location;lat;lon;timestamp;pressure;altitude;pressure_sealevel;temperature;humidity
31761;BME280;18335;51.486;7.562;2023-07-31T00:00:43;99722.31;;;17.64;100.00
31761;BME280;18335;51.486;7.562;2023-07-31T00:03:09;99735.66;;;17.67;100.00
31761;BME280;18335;51.486;7.562;2023-07-31T00:05:36;99718.41;;;17.72;100.00
31761;BME280;18335;51.486;7.562;2023-07-31T00:08:03;99720.16;;;17.66;100.00
31761;BME280;18335;51.486;7.562;2023-07-31T00:10:30;99716.28;;;17.74;100.00
31761;BME280;18335;51.486;7.562;2023-07-31T00:12:58;99711.31;;;17.57;100.00
31761;BME280;18335;51.486;7.562;2023-07-31T00:15:25;99714.81;;;17.96;100.00
31761;BME280;18335;51.486;7.562;2023-07-31T00:17:51;99717.91;;;17.81;100.00
31761;BME280;18335;51.486;7.562;2023-07-31T00:20:18;99706.38;;;17.66;100.00
31761;BME280;18335;51.486;7.562;2023-07-31T00:22:45;99710.78;;;17.74;100.00
31761;BME280;18335;51.486;7.562;2023-07-31T00:25:11;99709.06;;;17.73;100.00
31761;BME280;18335;51.486;7.562;2023-07-31T00:27:38;99709.53;;;17.69;100.00
31761;BME280;18335;51.486;7.562;2023-07-31T00:30:12;99708.63;;;17.76;100.00
31761;BME280;18335;51.486;7.562;2023-07-31T00:32:38;99705.59;;;17.84;100.00
31761;BME280;18335;51.486;7.562;2023-07-31T00:35:06;99708.28;;;17.65;100.00
31761;BME280;18335;51.486;7.562;2023-07-31T00:37:33;99709.44;;;17.83;100.00
31761;BME280;18335;51.486;7.562;2023-07-31T00:39:59;99695.84;;;17.81;100.00
31761;BME280;18335;51.486;7.562;2023-07-31T00:42:29;99712.97;;;17.65;100.00
31761;BME280;18335;51.486;7.562;2023-07-31T00:44:56;99701.41;;;17.75;100.00
31761;BME280;18335;51.486;7.562;2023-07-31T00:47:24;99708.06;;;17.67;100.00
31761;BME280;18335;51.486;7.562;2023-07-31T00:49:52;99705.34;;;17.60;100.00
31761;BME280;18335;51.486;7.562;2023-07-31T00:52:19;99707.72;;;17.82;100.00
31761;BME280;18335;51.486;7.562;2023-07-31T00:54:46;99707.13;;;17.80;100.00
31761;BME280;18335;51.486;7.562;2023-07-31T00:57:13;99696.63;;;17.88;100.00
31761;BME280;18335;51.486;7.562;2023-07-31T00:59:40;99709.75;;;17.93;100.00
31761;BME280;18335;51.486;7.562;2023-07-31T01:02:07;99714.16;;;17.76;100.00
31761;BME280;18335;51.486;7.562;2023-07-31T01:04:35;99700.97;;;17.78;100.00
31761;BME280;18335;51.486;7.562;2023-07-31T01:07:06;99704.16;;;17.75;100.00
31761;BME280;18335;51.486;7.562;2023-07-31T01:09:41;99697.94;;;17.86;100.00
31761;BME280;18335;51.486;7.562;2023-07-31T01:12:13;99698.59;;;18.06;100.00
31761;BME280;18335;51.486;7.562;2023-07-31T01:14:40;99694.53;;;17.84;100.00
31761;BME280;18335;51.486;7.562;2023-07-31T01:17:07;99696.69;;;17.82;100.00
31761;BME280;18335;51.486;7.562;2023-07-31T01:19:35;99690.81;;;17.96;100.00
31761;BME280;18335;51.486;7.562;2023-07-31T01:22:21;99682.44;;;17.85;100.00
31761;BME280;18335;51.486;7.562;2023-07-31T01:24:55;99700.72;;;17.54;100.00
31761;BME280;18335;51.486;7.562;2023-07-31T01:27:30;99703.97;;;17.76;100.00
31761;BME280;18335;51.486;7.562;2023-07-31T01:30:02;99691.97;;;17.89;100.00
31761;BME280;18335;51.486;7.562;2023-07-31T01:32:36;99671.84;;;17.50;100.00
31761;BME280;18335;51.486;7.562;2023-07-31T01:35:06;99688.91;;;17.72;100.00
31761;BME280;18335;51.486;7.562;2023-07-31T01:37:33;99698.03;;;17.73;100.00
31761;BME280;18335;51.486;7.562;2023-07-31T01:40:01;99689.66;;;17.86;100.00
31761;BME280;18335;51.486;7.562;2023-07-31T01:42:29;99702.41;;;17.80;100.00
31761;BME280;18335;51.486;7.562;2023-07-31T01:44:56;99699.34;;;17.70;100.00
31761;BME280;18335;51.486;7.562;2023-07-31T01:47:22;99712.81;;;17.85;100.00
31761;BME280;18335;51.486;7.562;2023-07-31T01:49:50;99691.19;;;17.82;100.00
31761;BME280;18335;51.486;7.562;2023-07-31T01:52:16;99693.78;;;17.77;100.00
31761;BME280;18335;51.486;7.562;2023-07-31T01:54:43;99685.94;;;17.74;100.00
31761;BME280;18335;51.486;7.562;2023-07-31T01:57:10;99697.25;;;17.65;100.00
31761;BME280;18335;51.486;7.562;2023-07-31T01:59:38;99679.97;;;17.77;100.00
31761;BME280;18335;51.486;7.562;2023-07-31T02:02:05;99683.59;;;17.95;100.00
31761;BME280;18335;51.486;7.562;2023-07-31T02:04:32;99682.78;;;17.95;100.00
31761;BME280;18335;51.486;7.562;2023-07-31T02:06:59;99693.38;;;18.16;100.00
31761;BME280;18335;51.486;7.562;2023-07-31T02:09:26;99683.53;;;18.02;100.00
31761;BME280;18335;51.486;7.562;2023-07-31T02:11:53;99686.56;;;17.76;100.00
31761;BME280;18335;51.486;7.562;2023-07-31T02:14:19;99676.47;;;17.88;100.00
31761;BME280;18335;51.486;7.562;2023-07-31T02:16:47;99682.78;;;18.13;100.00
31761;BME280;18335;51.486;7.562;2023-07-31T02:19:14;99675.97;;;17.73;100.00
31761;BME280;18335;51.486;7.562;2023-07-31T02:21:41;99679.91;;;17.58;100.00
31761;BME280;18335;51.486;7.562;2023-07-31T02:24:08;99677.38;;;17.82;100.00
31761;BME280;18335;51.486;7.562;2023-07-31T02:26:34;99672.59;;;17.71;100.00
31761;BME280;18335;51.486;7.562;2023-07-31T02:29:02;99665.53;;;17.50;100.00
31761;BME280;18335;51.486;7.562;2023-07-31T02:31:29;99677.47;;;17.93;100.00
31761;BME280;18335;51.486;7.562;2023-07-31T02:33:57;99674.72;;;17.68;100.00
31761;BME280;18335;51.486;7.562;2023-07-31T02:36:23;99665.31;;;17.76;100.00
31761;BME280;18335;51.486;7.562;2023-07-31T02:38:50;99666.03;;;17.90;100.00
31761;BME280;18335;51.486;7.562;2023-07-31T02:41:17;99674.81;;;18.05;100.00
31761;BME280;18335;51.486;7.562;2023-07-31T02:43:44;99675.31;;;17.95;100.00
31761;BME280;18335;51.486;7.562;2023-07-31T02:46:11;99661.88;;;17.81;100.00
31761;BME280;18335;51.486;7.562;2023-07-31T02:48:37;99670.16;;;17.81;100.00
31761;BME280;18335;51.486;7.562;2023-07-31T02:51:05;99662.13;;;17.79;100.00
31761;BME280;18335;51.486;7.562;2023-07-31T02:53:32;99668.03;;;17.83;100.00
31761;BME280;18335;51.486;7.562;2023-07-31T02:55:59;99660.53;;;17.90;100.00
31761;BME280;18335;51.486;7.562;2023-07-31T02:58:26;99662.50;;;17.83;100.00
31761;BME280;18335;51.486;7.562;2023-07-31T03:00:52;99658.28;;;17.55;100.00
31761;BME280;18335;51.486;7.562;2023-07-31T03:03:19;99664.03;;;17.79;100.00
31761;BME280;18335;51.486;7.562;2023-07-31T03:05:46;99652.28;;;17.83;100.00
31761;BME280;18335;51.486;7.562;2023-07-31T03:08:14;99658.97;;;17.76;100.00
31761;BME280;18335;51.486;7.562;2023-07-31T03:10:40;99647.97;;;17.94;100.00
31761;BME280;18335;51.486;7.562;2023-07-31T03:13:07;99657.03;;;18.01;100.00
31761;BME280;18335;51.486;7.562;2023-07-31T03:15:34;99651.56;;;17.94;100.00
31761;BME280;18335;51.486;7.562;2023-07-31T03:18:01;99650.34;;;17.65;100.00
31761;BME280;18335;51.486;7.562;2023-07-31T03:20:27;99645.47;;;17.67;100.00
31761;BME280;18335;51.486;7.562;2023-07-31T03:22:54;99644.09;;;17.77;100.00
31761;BME280;18335;51.486;7.562;2023-07-31T03:25:22;99647.47;;;17.79;100.00
31761;BME280;18335;51.486;7.562;2023-07-31T03:27:50;99656.84;;;17.96;100.00
31761;BME280;18335;51.486;7.562;2023-07-31T03:30:16;99650.44;;;17.77;100.00
31761;BME280;18335;51.486;7.562;2023-07-31T03:32:43;99640.44;;;17.58;100.00
31761;BME280;18335;51.486;7.562;2023-07-31T03:35:10;99650.00;;;17.80;100.00
31761;BME280;18335;51.486;7.562;2023-07-31T03:37:37;99647.13;;;17.93;100.00
31761;BME280;18335;51.486;7.562;2023-07-31T03:40:04;99641.66;;;17.87;100.00
31761;BME280;18335;51.486;7.562;2023-07-31T03:42:32;99637.19;;;17.67;100.00
31761;BME280;18335;51.486;7.562;2023-07-31T03:44:59;99635.53;;;17.85;100.00
31761;BME280;18335;51.486;7.562;2023-07-31T03:47:26;99633.56;;;17.92;100.00
31761;BME280;18335;51.486;7.562;2023-07-31T03:49:53;99642.66;;;17.92;100.00
31761;BME280;18335;51.486;7.562;2023-07-31T03:52:21;99643.47;;;17.75;100.00
31761;BME280;18335;51.486;7.562;2023-07-31T03:54:47;99643.56;;;17.68;100.00
31761;BME280;18335;51.486;7.562;2023-07-31T03:57:14;99646.75;;;18.08;100.00
31761;BME280;18335;51.486;7.562;2023-07-31T03:59:42;99636.56;;;18.08;100.00
31761;BME280;18335;51.486;7.562;2023-07-31T04:02:09;99636.00;;;18.00;100.00
31761;BME280;18335;51.486;7.562;2023-07-31T04:04:36;99632.47;;;17.93;100.00
31761;BME280;18335;51.486;7.562;2023-07-31T04:07:03;99639.91;;;18.10;100.00
31761;BME280;18335;51.486;7.562;2023-07-31T04:09:29;99631.41;;;18.12;100.00
31761;BME280;18335;51.486;7.562;2023-07-31T04:11:56;99634.94;;;18.19;100.00
31761;BME280;18335;51.486;7.562;2023-07-31T04:14:23;99628.88;;;18.29;100.00
31761;BME280;18335;51.486;7.562;2023-07-31T04:16:51;99628.03;;;18.28;100.00
31761;BME280;18335;51.486;7.562;2023-07-31T04:19:18;99628.22;;;18.33;100.00
31761;BME280;18335;51.486;7.562;2023-07-31T04:21:44;99626.91;;;18.17;100.00
31761;BME280;18335;51.486;7.562;2023-07-31T04:24:11;99618.81;;;18.34;100.00
31761;BME280;18335;51.486;7.562;2023-07-31T04:26:38;99618.75;;;18.41;100.00
31761;BME280;18335;51.486;7.562;2023-07-31T04:29:04;99626.22;;;18.58;100.00
31761;BME280;18335;51.486;7.562;2023-07-31T04:31:31;99618.31;;;18.62;100.00
31761;BME280;18335;51.486;7.562;2023-07-31T04:33:59;99625.69;;;18.50;100.00
31761;BME280;18335;51.486;7.562;2023-07-31T04:36:26;99619.38;;;18.61;100.00
31761;BME280;18335;51.486;7.562;2023-07-31T04:38:52;99630.81;;;18.64;100.00
31761;BME280;18335;51.486;7.562;2023-07-31T04:41:19;99622.84;;;18.56;100.00
31761;BME280;18335;51.486;7.562;2023-07-31T04:43:46;99615.94;;;18.65;100.00
31761;BME280;18335;51.486;7.562;2023-07-31T04:46:13;99627.44;;;18.62;100.00
31761;BME280;18335;51.486;7.562;2023-07-31T04:48:40;99618.56;;;18.60;100.00
31761;BME280;18335;51.486;7.562;2023-07-31T04:51:08;99623.16;;;18.66;100.00
31761;BME280;18335;51.486;7.562;2023-07-31T04:53:35;99623.63;;;18.63;100.00
31761;BME280;18335;51.486;7.562;2023-07-31T04:56:03;99601.97;;;18.60;100.00
31761;BME280;18335;51.486;7.562;2023-07-31T04:58:30;99607.16;;;18.68;100.00
31761;BME280;18335;51.486;7.562;2023-07-31T05:00:56;99612.69;;;18.68;100.00
31761;BME280;18335;51.486;7.562;2023-07-31T05:03:23;99618.09;;;18.63;100.00
31761;BME280;18335;51.486;7.562;2023-07-31T05:05:51;99606.34;;;18.50;100.00
31761;BME280;18335;51.486;7.562;2023-07-31T05:08:19;99607.63;;;18.65;100.00
31761;BME280;18335;51.486;7.562;2023-07-31T05:10:46;99601.50;;;18.63;100.00
31761;BME280;18335;51.486;7.562;2023-07-31T05:13:13;99601.31;;;18.76;100.00
31761;BME280;18335;51.486;7.562;2023-07-31T05:15:40;99605.63;;;18.72;100.00
31761;BME280;18335;51.486;7.562;2023-07-31T05:18:07;99595.78;;;18.76;100.00
31761;BME280;18335;51.486;7.562;2023-07-31T05:20:34;99599.00;;;18.73;100.00
31761;BME280;18335;51.486;7.562;2023-07-31T05:23:01;99596.50;;;18.72;100.00
31761;BME280;18335;51.486;7.562;2023-07-31T05:25:29;99594.28;;;18.62;100.00
31761;BME280;18335;51.486;7.562;2023-07-31T05:27:56;99601.69;;;18.80;100.00
31761;BME280;18335;51.486;7.562;2023-07-31T05:30:23;99584.63;;;18.83;100.00
31761;BME280;18335;51.486;7.562;2023-07-31T05:32:50;99575.25;;;18.72;100.00
31761;BME280;18335;51.486;7.562;2023-07-31T05:35:17;99580.59;;;18.97;100.00
31761;BME280;18335;51.486;7.562;2023-07-31T05:37:43;99573.63;;;18.95;100.00
31761;BME280;18335;51.486;7.562;2023-07-31T05:40:11;99576.75;;;18.98;100.00
31761;BME280;18335;51.486;7.562;2023-07-31T05:42:39;99563.06;;;19.03;100.00
31761;BME280;18335;51.486;7.562;2023-07-31T05:45:06;99563.56;;;19.12;100.00
31761;BME280;18335;51.486;7.562;2023-07-31T05:47:33;99563.31;;;19.13;100.00
31761;BME280;18335;51.486;7.562;2023-07-31T05:50:00;99563.91;;;19.04;100.00
31761;BME280;18335;51.486;7.562;2023-07-31T05:52:27;99565.22;;;19.01;100.00
31761;BME280;18335;51.486;7.562;2023-07-31T05:54:54;99560.16;;;18.98;100.00
31761;BME280;18335;51.486;7.562;2023-07-31T05:57:21;99556.47;;;19.16;100.00
31761;BME280;18335;51.486;7.562;2023-07-31T05:59:49;99547.78;;;19.01;100.00
31761;BME280;18335;51.486;7.562;2023-07-31T06:02:16;99542.50;;;18.99;100.00
31761;BME280;18335;51.486;7.562;2023-07-31T06:04:42;99551.13;;;18.91;100.00
31761;BME280;18335;51.486;7.562;2023-07-31T06:07:09;99551.16;;;19.03;100.00
31761;BME280;18335;51.486;7.562;2023-07-31T06:09:36;99546.44;;;18.92;100.00
31761;BME280;18335;51.486;7.562;2023-07-31T06:12:03;99550.72;;;18.76;100.00
31761;BME280;18335;51.486;7.562;2023-07-31T06:14:30;99543.25;;;18.76;100.00
31761;BME280;18335;51.486;7.562;2023-07-31T06:16:58;99541.91;;;19.09;100.00
31761;BME280;18335;51.486;7.562;2023-07-31T06:19:24;99535.84;;;18.89;100.00
31761;BME280;18335;51.486;7.562;2023-07-31T06:21:51;99527.09;;;18.92;100.00
31761;BME280;18335;51.486;7.562;2023-07-31T06:24:18;99530.31;;;18.89;100.00
31761;BME280;18335;51.486;7.562;2023-07-31T06:26:46;99528.50;;;18.83;100.00
31761;BME280;18335;51.486;7.562;2023-07-31T06:29:12;99527.16;;;18.73;100.00
31761;BME280;18335;51.486;7.562;2023-07-31T06:31:40;99526.41;;;19.08;100.00
31761;BME280;18335;51.486;7.562;2023-07-31T06:34:08;99522.06;;;19.12;100.00
31761;BME280;18335;51.486;7.562;2023-07-31T06:36:35;99510.63;;;18.97;100.00
31761;BME280;18335;51.486;7.562;2023-07-31T06:39:02;99518.00;;;19.14;100.00
31761;BME280;18335;51.486;7.562;2023-07-31T06:41:29;99510.66;;;19.08;100.00
31761;BME280;18335;51.486;7.562;2023-07-31T06:43:55;99519.66;;;19.04;100.00
31761;BME280;18335;51.486;7.562;2023-07-31T06:46:22;99516.22;;;19.31;100.00
31761;BME280;18335;51.486;7.562;2023-07-31T06:48:49;99515.75;;;19.34;100.00
31761;BME280;18335;51.486;7.562;2023-07-31T06:51:17;99523.03;;;19.06;100.00
31761;BME280;18335;51.486;7.562;2023-07-31T06:53:44;99524.38;;;19.26;100.00
31761;BME280;18335;51.486;7.562;2023-07-31T06:56:11;99508.72;;;19.09;100.00
31761;BME280;18335;51.486;7.562;2023-07-31T06:58:37;99510.31;;;19.16;100.00
31761;BME280;18335;51.486;7.562;2023-07-31T07:01:04;99513.28;;;19.15;100.00
31761;BME280;18335;51.486;7.562;2023-07-31T07:03:32;99508.75;;;19.32;100.00
31761;BME280;18335;51.486;7.562;2023-07-31T07:05:59;99509.00;;;19.30;100.00
31761;BME280;18335;51.486;7.562;2023-07-31T07:08:27;99522.72;;;19.25;100.00
31761;BME280;18335;51.486;7.562;2023-07-31T07:10:54;99511.06;;;19.35;100.00
31761;BME280;18335;51.486;7.562;2023-07-31T07:13:21;99518.63;;;19.28;100.00
31761;BME280;18335;51.486;7.562;2023-07-31T07:15:47;99510.78;;;19.02;100.00
31761;BME280;18335;51.486;7.562;2023-07-31T07:18:14;99512.22;;;19.16;100.00
31761;BME280;18335;51.486;7.562;2023-07-31T07:20:46;99504.13;;;19.44;100.00
31761;BME280;18335;51.486;7.562;2023-07-31T07:23:13;99505.63;;;19.17;100.00
31761;BME280;18335;51.486;7.562;2023-07-31T07:25:41;99515.28;;;18.85;100.00
31761;BME280;18335;51.486;7.562;2023-07-31T07:28:08;99508.59;;;19.04;100.00
31761;BME280;18335;51.486;7.562;2023-07-31T07:30:35;99522.63;;;18.91;100.00
31761;BME280;18335;51.486;7.562;2023-07-31T07:33:02;99515.69;;;19.00;100.00
31761;BME280;18335;51.486;7.562;2023-07-31T07:35:29;99519.84;;;18.91;100.00
31761;BME280;18335;51.486;7.562;2023-07-31T07:37:56;99523.53;;;19.14;100.00
31761;BME280;18335;51.486;7.562;2023-07-31T07:40:23;99520.63;;;19.09;100.00
31761;BME280;18335;51.486;7.562;2023-07-31T07:42:52;99512.81;;;19.06;100.00
31761;BME280;18335;51.486;7.562;2023-07-31T07:45:18;99517.06;;;19.32;100.00
31761;BME280;18335;51.486;7.562;2023-07-31T07:47:45;99521.00;;;19.13;100.00
31761;BME280;18335;51.486;7.562;2023-07-31T07:50:12;99511.38;;;19.04;100.00
31761;BME280;18335;51.486;7.562;2023-07-31T07:52:38;99506.09;;;19.02;100.00
31761;BME280;18335;51.486;7.562;2023-07-31T07:55:05;99501.53;;;19.08;100.00
31761;BME280;18335;51.486;7.562;2023-07-31T07:57:32;99501.16;;;19.16;100.00
31761;BME280;18335;51.486;7.562;2023-07-31T08:00:00;99489.38;;;19.09;100.00
31761;BME280;18335;51.486;7.562;2023-07-31T08:02:39;99504.88;;;18.98;100.00
31761;BME280;18335;51.486;7.562;2023-07-31T08:05:06;99503.94;;;19.16;100.00
31761;BME280;18335;51.486;7.562;2023-07-31T08:07:33;99506.44;;;19.06;100.00
31761;BME280;18335;51.486;7.562;2023-07-31T08:10:00;99511.84;;;19.12;100.00
31761;BME280;18335;51.486;7.562;2023-07-31T08:12:27;99497.47;;;19.45;100.00
31761;BME280;18335;51.486;7.562;2023-07-31T08:14:54;99499.84;;;19.30;100.00
31761;BME280;18335;51.486;7.562;2023-07-31T08:17:22;99490.75;;;19.41;100.00
31761;BME280;18335;51.486;7.562;2023-07-31T08:19:49;99490.88;;;19.46;100.00
31761;BME280;18335;51.486;7.562;2023-07-31T08:22:15;99492.03;;;19.85;100.00
31761;BME280;18335;51.486;7.562;2023-07-31T08:24:42;99482.44;;;19.64;100.00
31761;BME280;18335;51.486;7.562;2023-07-31T08:27:09;99486.66;;;19.55;100.00
31761;BME280;18335;51.486;7.562;2023-07-31T08:29:35;99482.19;;;19.54;100.00
31761;BME280;18335;51.486;7.562;2023-07-31T08:32:02;99486.06;;;19.53;100.00
31761;BME280;18335;51.486;7.562;2023-07-31T08:34:30;99488.91;;;19.35;100.00
31761;BME280;18335;51.486;7.562;2023-07-31T08:36:57;99484.09;;;19.65;100.00
31761;BME280;18335;51.486;7.562;2023-07-31T08:39:24;99484.13;;;19.42;100.00
31761;BME280;18335;51.486;7.562;2023-07-31T08:41:51;99484.13;;;19.42;100.00
31761;BME280;18335;51.486;7.562;2023-07-31T08:44:17;99481.47;;;20.10;100.00
31761;BME280;18335;51.486;7.562;2023-07-31T08:46:45;99476.50;;;19.84;100.00
31761;BME280;18335;51.486;7.562;2023-07-31T08:49:14;99480.13;;;19.38;100.00
31761;BME280;18335;51.486;7.562;2023-07-31T08:51:43;99470.38;;;19.12;100.00
31761;BME280;18335;51.486;7.562;2023-07-31T08:54:12;99471.59;;;19.05;100.00
31761;BME280;18335;51.486;7.562;2023-07-31T08:56:40;99464.00;;;19.12;100.00
31761;BME280;18335;51.486;7.562;2023-07-31T08:59:07;99480.84;;;19.22;100.00
31761;BME280;18335;51.486;7.562;2023-07-31T09:01:38;99468.94;;;19.79;100.00
31761;BME280;18335;51.486;7.562;2023-07-31T09:04:10;99478.06;;;19.92;100.00
31761;BME280;18335;51.486;7.562;2023-07-31T09:06:39;99476.75;;;19.82;100.00
31761;BME280;18335;51.486;7.562;2023-07-31T09:09:08;99478.09;;;19.45;100.00
31761;BME280;18335;51.486;7.562;2023-07-31T09:11:35;99475.91;;;19.24;100.00
31761;BME280;18335;51.486;7.562;2023-07-31T09:14:03;99470.38;;;19.12;100.00
31761;BME280;18335;51.486;7.562;2023-07-31T09:16:34;99480.25;;;19.31;100.00
31761;BME280;18335;51.486;7.562;2023-07-31T09:19:01;99481.31;;;19.07;100.00
31761;BME280;18335;51.486;7.562;2023-07-31T09:21:29;99476.66;;;19.54;100.00
31761;BME280;18335;51.486;7.562;2023-07-31T09:23:55;99470.03;;;19.32;100.00
31761;BME280;18335;51.486;7.562;2023-07-31T09:26:31;99468.81;;;19.16;100.00
31761;BME280;18335;51.486;7.562;2023-07-31T09:28:57;99474.72;;;19.08;100.00
31761;BME280;18335;51.486;7.562;2023-07-31T09:31:38;99477.88;;;18.70;100.00
31761;BME280;18335;51.486;7.562;2023-07-31T09:34:05;99477.75;;;18.65;100.00
31761;BME280;18335;51.486;7.562;2023-07-31T09:36:32;99474.66;;;18.73;100.00
31761;BME280;18335;51.486;7.562;2023-07-31T09:39:02;99479.59;;;18.83;100.00
31761;BME280;18335;51.486;7.562;2023-07-31T09:41:30;99474.72;;;19.31;100.00
31761;BME280;18335;51.486;7.562;2023-07-31T09:43:57;99473.13;;;19.01;100.00
31761;BME280;18335;51.486;7.562;2023-07-31T09:46:27;99472.44;;;19.05;100.00
31761;BME280;18335;51.486;7.562;2023-07-31T09:49:03;99470.25;;;19.07;100.00
31761;BME280;18335;51.486;7.562;2023-07-31T09:51:30;99459.69;;;19.04;100.00
31761;BME280;18335;51.486;7.562;2023-07-31T09:53:57;99456.91;;;19.16;100.00
31761;BME280;18335;51.486;7.562;2023-07-31T09:56:25;99452.72;;;19.13;100.00
31761;BME280;18335;51.486;7.562;2023-07-31T09:58:54;99451.38;;;19.04;100.00
31761;BME280;18335;51.486;7.562;2023-07-31T10:01:21;99447.78;;;19.62;100.00
31761;BME280;18335;51.486;7.562;2023-07-31T10:03:48;99445.84;;;19.62;100.00
31761;BME280;18335;51.486;7.562;2023-07-31T10:06:16;99442.44;;;19.72;100.00
31761;BME280;18335;51.486;7.562;2023-07-31T10:08:46;99441.78;;;19.53;100.00
31761;BME280;18335;51.486;7.562;2023-07-31T10:11:14;99439.16;;;19.47;100.00
31761;BME280;18335;51.486;7.562;2023-07-31T10:13:42;99442.69;;;19.82;100.00
31761;BME280;18335;51.486;7.562;2023-07-31T10:16:12;99433.97;;;19.50;100.00
31761;BME280;18335;51.486;7.562;2023-07-31T10:18:39;99436.84;;;19.55;100.00
31761;BME280;18335;51.486;7.562;2023-07-31T10:21:07;99430.75;;;19.81;100.00
31761;BME280;18335;51.486;7.562;2023-07-31T10:23:34;99430.72;;;19.53;100.00
31761;BME280;18335;51.486;7.562;2023-07-31T10:26:01;99440.41;;;19.32;100.00
31761;BME280;18335;51.486;7.562;2023-07-31T10:28:29;99438.03;;;19.48;100.00
31761;BME280;18335;51.486;7.562;2023-07-31T10:31:01;99429.56;;;19.77;100.00
31761;BME280;18335;51.486;7.562;2023-07-31T10:33:30;99431.75;;;19.75;100.00
31761;BME280;18335;51.486;7.562;2023-07-31T10:36:12;99431.13;;;20.13;100.00
31761;BME280;18335;51.486;7.562;2023-07-31T10:38:39;99428.81;;;19.94;100.00
31761;BME280;18335;51.486;7.562;2023-07-31T10:41:08;99425.44;;;19.40;100.00
31761;BME280;18335;51.486;7.562;2023-07-31T10:43:36;99431.03;;;19.80;100.00
31761;BME280;18335;51.486;7.562;2023-07-31T10:46:06;99427.22;;;19.98;100.00
31761;BME280;18335;51.486;7.562;2023-07-31T10:48:35;99433.47;;;19.42;100.00
31761;BME280;18335;51.486;7.562;2023-07-31T10:51:07;99430.31;;;19.73;100.00
31761;BME280;18335;51.486;7.562;2023-07-31T10:53:34;99436.16;;;19.88;100.00
31761;BME280;18335;51.486;7.562;2023-07-31T10:56:01;99429.63;;;19.19;100.00
31761;BME280;18335;51.486;7.562;2023-07-31T10:58:28;99428.25;;;19.80;100.00
31761;BME280;18335;51.486;7.562;2023-07-31T11:00:58;99435.25;;;19.36;100.00
31761;BME280;18335;51.486;7.562;2023-07-31T11:03:25;99425.78;;;19.44;100.00
31761;BME280;18335;51.486;7.562;2023-07-31T11:05:59;99439.13;;;19.58;100.00
31761;BME280;18335;51.486;7.562;2023-07-31T11:08:29;99429.75;;;19.13;100.00
31761;BME280;18335;51.486;7.562;2023-07-31T11:11:07;99427.09;;;19.64;100.00
31761;BME280;18335;51.486;7.562;2023-07-31T11:13:40;99436.69;;;19.27;100.00
31761;BME280;18335;51.486;7.562;2023-07-31T11:16:07;99429.63;;;19.19;100.00
31761;BME280;18335;51.486;7.562;2023-07-31T11:18:34;99425.44;;;19.40;100.00
31761;BME280;18335;51.486;7.562;2023-07-31T11:21:03;99431.44;;;19.14;100.00
31761;BME280;18335;51.486;7.562;2023-07-31T11:23:30;99430.09;;;19.16;100.00
31761;BME280;18335;51.486;7.562;2023-07-31T11:25:59;99444.03;;;19.33;100.00
31761;BME280;18335;51.486;7.562;2023-07-31T11:28:31;99446.91;;;19.26;100.00
31761;BME280;18335;51.486;7.562;2023-07-31T11:30:59;99441.75;;;19.30;100.00
31761;BME280;18335;51.486;7.562;2023-07-31T11:33:26;99448.50;;;19.11;100.00
31761;BME280;18335;51.486;7.562;2023-07-31T11:35:53;99453.06;;;19.28;100.00
31761;BME280;18335;51.486;7.562;2023-07-31T11:38:25;99432.50;;;19.24;100.00
31761;BME280;18335;51.486;7.562;2023-07-31T11:40:52;99426.97;;;19.13;100.00
31761;BME280;18335;51.486;7.562;2023-07-31T11:43:20;99425.88;;;19.37;100.00
31761;BME280;18335;51.486;7.562;2023-07-31T11:45:47;99425.88;;;19.37;100.00
31761;BME280;18335;51.486;7.562;2023-07-31T11:48:22;99414.72;;;19.55;100.00
31761;BME280;18335;51.486;7.562;2023-07-31T11:50:51;99408.28;;;19.66;100.00
31761;BME280;18335;51.486;7.562;2023-07-31T11:53:21;99412.50;;;19.69;100.00
31761;BME280;18335;51.486;7.562;2023-07-31T11:55:51;99411.97;;;19.83;100.00
31761;BME280;18335;51.486;7.562;2023-07-31T11:58:18;99410.63;;;19.98;100.00
31761;BME280;18335;51.486;7.562;2023-07-31T12:00:46;99404.59;;;20.01;100.00
31761;BME280;18335;51.486;7.562;2023-07-31T12:03:13;99398.28;;;19.77;100.00
31761;BME280;18335;51.486;7.562;2023-07-31T12:05:40;99397.44;;;20.05;100.00
31761;BME280;18335;51.486;7.562;2023-07-31T12:08:11;99395.47;;;19.88;100.00
31761;BME280;18335;51.486;7.562;2023-07-31T12:10:38;99406.81;;;19.75;100.00
31761;BME280;18335;51.486;7.562;2023-07-31T12:13:08;99397.84;;;19.97;100.00
31761;BME280;18335;51.486;7.562;2023-07-31T12:15:40;99399.22;;;20.11;100.00
31761;BME280;18335;51.486;7.562;2023-07-31T12:18:09;99413.50;;;20.19;100.00
31761;BME280;18335;51.486;7.562;2023-07-31T12:20:41;99407.44;;;20.34;100.00
31761;BME280;18335;51.486;7.562;2023-07-31T12:23:13;99403.66;;;20.52;100.00
31761;BME280;18335;51.486;7.562;2023-07-31T12:25:39;99409.00;;;20.41;100.00
31761;BME280;18335;51.486;7.562;2023-07-31T12:28:07;99400.03;;;20.84;100.00
31761;BME280;18335;51.486;7.562;2023-07-31T12:30:38;99391.38;;;20.81;100.00
31761;BME280;18335;51.486;7.562;2023-07-31T12:33:07;99384.50;;;20.83;100.00
31761;BME280;18335;51.486;7.562;2023-07-31T12:35:41;99384.06;;;20.75;100.00
31761;BME280;18335;51.486;7.562;2023-07-31T12:38:07;99387.59;;;20.87;100.00
31761;BME280;18335;51.486;7.562;2023-07-31T12:40:37;99392.47;;;21.13;100.00
31761;BME280;18335;51.486;7.562;2023-07-31T12:43:04;99381.72;;;20.83;100.00
31761;BME280;18335;51.486;7.562;2023-07-31T12:45:32;99380.97;;;20.71;100.00
31761;BME280;18335;51.486;7.562;2023-07-31T12:47:59;99383.75;;;20.55;100.00
31761;BME280;18335;51.486;7.562;2023-07-31T12:50:27;99379.78;;;20.67;100.00
31761;BME280;18335;51.486;7.562;2023-07-31T12:52:53;99377.94;;;20.39;100.00